Terminal Aerodrome Forecast
Issued by NWS Sterling, VA

Current Version | Previous Version | Text Only | Print | Product List | Glossary Off
Versions: 1 2 3 4 5 6 7 8 9 10 11 12 13 14 15 16 17 18 19 20 21 22 23 24 25 26

000
FTUS41 KLWX 302341
TAFDCA
TAF
KDCA 302341Z 0100/0124 18010KT P6SM VCSH BKN070
     FM010200 10004KT P6SM OVC070
     FM010400 08005KT P6SM -SHRA OVC040
     FM010800 06009KT P6SM -SHRA OVC025
     FM011000 06010KT P6SM OVC015
     FM011500 06013KT P6SM BKN040
     FM012000 06009KT P6SM BKN040
     FM012300 36005KT P6SM BKN040=

USA.gov is the U.S. government's official web portal to all federal, state and local government web resources and services.